createdAt,value
2022-12-01T00:01:17.748Z,101781.97
2022-12-01T00:03:44.482Z,101784.72
2022-12-01T00:06:15.641Z,101786.69
2022-12-01T00:09:06.075Z,101776.19
2022-12-01T00:11:34.929Z,101782.50
2022-12-01T00:14:02.090Z,101797.00
2022-12-01T00:16:29.316Z,101792.50
2022-12-01T00:18:56.276Z,101788.63
2022-12-01T00:21:24.394Z,101791.69
2022-12-01T00:23:54.075Z,101786.47
2022-12-01T00:26:21.524Z,101787.03
2022-12-01T00:28:52.587Z,101785.72
2022-12-01T00:31:19.864Z,101788.13
2022-12-01T00:33:46.585Z,101799.09
2022-12-01T00:36:15.758Z,101799.41
2022-12-01T00:38:42.446Z,101795.00
2022-12-01T00:41:09.369Z,101802.72
2022-12-01T00:43:35.990Z,101807.31
2022-12-01T00:46:02.689Z,101802.81
2022-12-01T00:48:29.412Z,101803.66
2022-12-01T00:50:56.067Z,101806.19
2022-12-01T00:53:23.425Z,101810.88
2022-12-01T00:55:50.304Z,101803.91
2022-12-01T00:58:16.967Z,101807.31
2022-12-01T01:00:43.630Z,101805.47
2022-12-01T01:03:10.954Z,101805.69
2022-12-01T01:05:46.346Z,101805.75
2022-12-01T01:08:15.001Z,101810.06
2022-12-01T01:10:43.523Z,101805.66
2022-12-01T01:13:11.472Z,101808.13
2022-12-01T01:15:38.580Z,101809.09
2022-12-01T01:18:05.845Z,101815.50
2022-12-01T01:20:32.732Z,101806.28
2022-12-01T01:22:59.708Z,101809.78
2022-12-01T01:25:28.484Z,101824.00
2022-12-01T01:27:55.122Z,101821.09
2022-12-01T01:30:22.043Z,101819.41
2022-12-01T01:32:50.788Z,101822.72
2022-12-01T01:35:17.443Z,101832.84
2022-12-01T01:40:24.567Z,101831.19
2022-12-01T01:42:51.165Z,101829.97
2022-12-01T01:45:29.791Z,101834.16
2022-12-01T01:47:59.771Z,101825.59
2022-12-01T01:50:29.615Z,101828.94
2022-12-01T01:53:02.286Z,101835.00
2022-12-01T01:55:33.976Z,101838.00
2022-12-01T01:58:04.793Z,101839.84
2022-12-01T02:00:31.535Z,101827.88
2022-12-01T02:02:59.843Z,101834.00
2022-12-01T02:05:32.692Z,101834.06
2022-12-01T02:08:04.642Z,101838.88
2022-12-01T02:11:00.698Z,101835.00
2022-12-01T02:13:58.956Z,101827.84
2022-12-01T02:16:55.016Z,101833.50
2022-12-01T02:19:33.953Z,101817.41
2022-12-01T02:22:22.373Z,101823.03
2022-12-01T02:25:07.809Z,101821.25
2022-12-01T02:28:22.298Z,101817.53
2022-12-01T02:30:52.721Z,101822.88
2022-12-01T02:33:34.991Z,101828.38
2022-12-01T02:36:27.784Z,101826.91
2022-12-01T02:39:10.810Z,101822.66
2022-12-01T02:41:42.988Z,101832.75
2022-12-01T02:44:25.991Z,101834.88
2022-12-01T02:47:14.599Z,101828.84
2022-12-01T02:49:47.625Z,101827.84
2022-12-01T02:52:16.130Z,101830.03
2022-12-01T02:54:45.227Z,101829.47
2022-12-01T02:57:13.975Z,101820.69
2022-12-01T02:59:47.185Z,101821.66
2022-12-01T03:02:42.591Z,101824.41
2022-12-01T03:05:24.634Z,101828.22
2022-12-01T03:07:54.429Z,101821.53
2022-12-01T03:10:42.401Z,101827.03
2022-12-01T03:13:53.969Z,101830.28
2022-12-01T03:16:29.119Z,101825.84
2022-12-01T03:19:10.347Z,101827.59
2022-12-01T03:21:50.467Z,101830.16
2022-12-01T03:24:20.428Z,101830.81
2022-12-01T03:26:54.191Z,101829.59
2022-12-01T03:29:26.776Z,101835.84
2022-12-01T03:32:05.411Z,101838.78
2022-12-01T03:34:40.863Z,101828.84
2022-12-01T03:37:15.998Z,101823.44
2022-12-01T03:39:46.222Z,101820.38
2022-12-01T03:42:23.515Z,101815.88
2022-12-01T03:44:56.502Z,101821.56
2022-12-01T03:47:32.105Z,101824.97
2022-12-01T03:50:00.572Z,101831.25
2022-12-01T03:52:32.877Z,101825.53
2022-12-01T03:55:16.336Z,101825.78
2022-12-01T03:58:05.820Z,101834.34
2022-12-01T04:00:33.457Z,101834.22
2022-12-01T04:03:03.196Z,101834.56
2022-12-01T04:05:32.364Z,101836.06
2022-12-01T04:07:59.577Z,101837.44
2022-12-01T04:10:26.448Z,101839.75
2022-12-01T04:12:59.022Z,101843.84
2022-12-01T04:15:26.754Z,101849.34
2022-12-01T04:17:53.250Z,101840.47
2022-12-01T04:20:20.719Z,101843.63
2022-12-01T04:22:48.594Z,101844.13
2022-12-01T04:25:15.402Z,101847.06
2022-12-01T04:27:42.077Z,101846.22
2022-12-01T04:30:12.618Z,101847.78
2022-12-01T04:32:40.869Z,101844.06
2022-12-01T04:35:09.046Z,101848.25
2022-12-01T04:37:40.246Z,101841.03
2022-12-01T04:40:08.238Z,101843.81
2022-12-01T04:42:37.377Z,101846.44
2022-12-01T04:45:07.657Z,101849.66
2022-12-01T04:47:34.309Z,101846.06
2022-12-01T04:50:00.878Z,101851.50
2022-12-01T04:52:32.140Z,101848.59
2022-12-01T04:55:03.959Z,101855.25
2022-12-01T04:57:30.571Z,101851.25
2022-12-01T04:59:57.178Z,101858.47
2022-12-01T05:02:23.823Z,101857.81
2022-12-01T05:04:50.503Z,101854.09
2022-12-01T05:07:18.262Z,101856.31
2022-12-01T05:09:44.963Z,101851.97
2022-12-01T05:12:11.563Z,101861.34
2022-12-01T05:14:38.240Z,101850.41
2022-12-01T05:17:04.847Z,101862.88
2022-12-01T05:19:50.321Z,101863.72
2022-12-01T05:22:18.450Z,101860.81
2022-12-01T05:24:49.839Z,101861.91
2022-12-01T05:27:16.396Z,101859.25
2022-12-01T05:29:43.125Z,101864.22
2022-12-01T05:32:15.823Z,101862.06
2022-12-01T05:34:42.470Z,101866.91
2022-12-01T05:37:12.221Z,101863.38
2022-12-01T05:39:40.296Z,101865.19
2022-12-01T05:42:06.878Z,101869.56
2022-12-01T05:44:33.518Z,101873.91
2022-12-01T05:47:00.131Z,101868.38
2022-12-01T05:49:26.841Z,101870.22
2022-12-01T05:51:53.413Z,101873.63
2022-12-01T05:54:26.076Z,101868.13
2022-12-01T05:56:52.736Z,101869.13
2022-12-01T05:59:19.304Z,101877.88
2022-12-01T06:01:48.160Z,101877.09
2022-12-01T06:04:15.075Z,101875.59
2022-12-01T06:06:41.751Z,101868.63
2022-12-01T06:09:15.940Z,101875.56
2022-12-01T06:11:42.649Z,101883.25
2022-12-01T06:14:09.257Z,101885.38
2022-12-01T06:16:35.946Z,101884.19
2022-12-01T06:19:02.588Z,101886.13
2022-12-01T06:21:31.383Z,101891.94
2022-12-01T06:23:57.977Z,101898.00
2022-12-01T06:26:24.627Z,101897.56
2022-12-01T06:28:51.289Z,101898.19
2022-12-01T06:31:18.005Z,101887.63
2022-12-01T06:33:44.619Z,101897.44
2022-12-01T06:36:11.335Z,101902.56
2022-12-01T06:38:37.897Z,101898.91
2022-12-01T06:41:05.737Z,101905.31
2022-12-01T06:43:32.656Z,101907.16
2022-12-01T06:46:01.985Z,101914.13
2022-12-01T06:48:32.834Z,101907.31
2022-12-01T06:51:00.685Z,101910.09
2022-12-01T06:53:28.617Z,101913.31
2022-12-01T06:56:00.835Z,101914.19
2022-12-01T06:58:30.088Z,101912.19
2022-12-01T07:01:01.165Z,101916.78
2022-12-01T07:03:27.859Z,101906.22
2022-12-01T07:06:01.602Z,101904.00
2022-12-01T07:08:29.886Z,101909.91
2022-12-01T07:10:57.617Z,101914.97
2022-12-01T07:13:25.767Z,101917.47
2022-12-01T07:15:55.748Z,101914.84
2022-12-01T07:18:22.331Z,101930.75
2022-12-01T07:20:49.084Z,101922.19
2022-12-01T07:23:15.825Z,101924.44
2022-12-01T07:25:42.547Z,101918.88
2022-12-01T07:28:16.580Z,101925.97
2022-12-01T07:30:43.306Z,101926.94
2022-12-01T07:33:09.939Z,101937.47
2022-12-01T07:35:38.627Z,101940.19
2022-12-01T07:38:05.240Z,101932.75
2022-12-01T07:40:32.257Z,101934.75
2022-12-01T07:43:01.195Z,101936.53
2022-12-01T07:45:29.957Z,101941.88
2022-12-01T07:47:56.562Z,101948.25
2022-12-01T07:50:23.223Z,101944.13
2022-12-01T07:52:50.959Z,101945.16
2022-12-01T07:55:17.687Z,101937.97
2022-12-01T07:57:46.343Z,101938.25
2022-12-01T08:00:13.690Z,101949.00
2022-12-01T08:02:43.118Z,101945.66
2022-12-01T08:05:09.768Z,101945.13
2022-12-01T08:07:36.418Z,101947.19
2022-12-01T08:10:03.610Z,101944.13
2022-12-01T08:12:30.188Z,101946.41
2022-12-01T08:14:56.864Z,101938.34
2022-12-01T08:17:23.498Z,101939.50
2022-12-01T08:19:50.452Z,101942.56
2022-12-01T08:22:17.370Z,101943.69
2022-12-01T08:24:44.039Z,101942.38
2022-12-01T08:27:10.601Z,101939.13
2022-12-01T08:29:37.242Z,101937.91
2022-12-01T08:32:06.557Z,101942.00
2022-12-01T08:34:36.406Z,101950.56
2022-12-01T08:37:03.092Z,101954.47
2022-12-01T08:39:30.239Z,101957.69
2022-12-01T08:41:56.848Z,101952.16
2022-12-01T08:44:23.487Z,101953.81
2022-12-01T08:46:50.243Z,101957.69
2022-12-01T08:49:16.929Z,101959.97
2022-12-01T08:51:43.692Z,101957.47
2022-12-01T08:54:11.815Z,101962.84
2022-12-01T08:56:41.711Z,101961.88
2022-12-01T08:59:16.161Z,101967.69
2022-12-01T09:01:57.449Z,101962.13
2022-12-01T09:04:28.159Z,101960.72
2022-12-01T09:07:01.014Z,101960.50
2022-12-01T09:09:29.012Z,101958.31
2022-12-01T09:11:56.233Z,101960.31
2022-12-01T09:14:26.050Z,101962.06
2022-12-01T09:16:52.932Z,101963.00
2022-12-01T09:19:24.592Z,101964.25
2022-12-01T09:21:55.058Z,101964.19
2022-12-01T09:24:21.847Z,101956.66
2022-12-01T09:26:48.558Z,101960.13
2022-12-01T09:29:19.038Z,101966.97
2022-12-01T09:31:45.742Z,101975.47
2022-12-01T09:34:15.511Z,101962.06
2022-12-01T09:36:42.433Z,101961.69
2022-12-01T09:39:21.387Z,101960.34
2022-12-01T09:42:09.011Z,101968.97
2022-12-01T09:44:49.077Z,101960.13
2022-12-01T09:47:32.280Z,101958.84
2022-12-01T09:50:16.194Z,101960.97
2022-12-01T09:52:48.335Z,101961.53
2022-12-01T09:55:17.483Z,101958.44
2022-12-01T09:57:47.946Z,101952.00
2022-12-01T10:00:21.529Z,101949.81
2022-12-01T10:02:50.468Z,101958.53
2022-12-01T10:05:21.122Z,101951.69
2022-12-01T10:08:07.960Z,101944.28
2022-12-01T10:10:44.955Z,101946.84
2022-12-01T10:13:29.133Z,101943.91
2022-12-01T10:16:12.443Z,101941.81
2022-12-01T10:19:01.267Z,101946.78
2022-12-01T10:21:52.985Z,101938.09
2022-12-01T10:24:31.766Z,101941.63
2022-12-01T10:27:18.845Z,101938.06
2022-12-01T10:29:48.154Z,101942.38
2022-12-01T10:32:27.794Z,101934.97
2022-12-01T10:34:54.498Z,101932.03
2022-12-01T10:37:25.185Z,101932.25
2022-12-01T10:39:55.114Z,101930.81
2022-12-01T10:42:37.669Z,101929.69
2022-12-01T10:48:09.015Z,101918.72
2022-12-01T10:50:39.541Z,101920.38
2022-12-01T10:53:06.222Z,101914.75
2022-12-01T10:55:36.479Z,101920.50
2022-12-01T10:58:14.040Z,101911.91
2022-12-01T11:01:05.017Z,101918.66
2022-12-01T11:03:36.931Z,101911.09
2022-12-01T11:06:07.481Z,101918.91
2022-12-01T11:08:46.765Z,101915.56
2022-12-01T11:11:24.821Z,101906.91
2022-12-01T11:13:54.071Z,101914.66
2022-12-01T11:16:44.827Z,101913.78
2022-12-01T11:19:14.307Z,101910.19
2022-12-01T11:21:52.594Z,101905.34
2022-12-01T11:24:27.364Z,101907.75
2022-12-01T11:26:54.202Z,101904.16
2022-12-01T11:29:32.515Z,101904.44
2022-12-01T11:32:00.717Z,101905.78
2022-12-01T11:34:33.215Z,101902.28
2022-12-01T11:37:04.187Z,101910.28
2022-12-01T11:39:37.588Z,101905.28
2022-12-01T11:42:06.332Z,101896.34
2022-12-01T11:44:50.861Z,101905.53
2022-12-01T11:47:25.447Z,101906.75
2022-12-01T11:50:00.688Z,101904.09
2022-12-01T11:52:30.023Z,101898.00
2022-12-01T11:54:59.043Z,101893.84
2022-12-01T11:57:35.420Z,101902.03
2022-12-01T12:00:12.454Z,101905.03
2022-12-01T12:03:05.363Z,101911.06
2022-12-01T12:06:11.643Z,101905.16
2022-12-01T12:09:16.573Z,101900.63
2022-12-01T12:12:03.642Z,101892.41
2022-12-01T12:15:06.771Z,101892.84
2022-12-01T12:18:01.176Z,101892.19
2022-12-01T12:20:52.449Z,101898.81
2022-12-01T12:23:40.402Z,101889.81
2022-12-01T12:26:17.930Z,101885.63
2022-12-01T12:29:13.965Z,101893.06
2022-12-01T12:31:49.850Z,101894.50
2022-12-01T12:34:28.341Z,101882.66
2022-12-01T12:37:16.079Z,101895.63
2022-12-01T12:40:05.734Z,101883.91
2022-12-01T12:42:50.352Z,101892.47
2022-12-01T12:45:30.467Z,101889.50
2022-12-01T12:48:21.341Z,101884.31
2022-12-01T12:51:02.376Z,101889.28
2022-12-01T12:53:38.510Z,101891.41
2022-12-01T12:56:10.141Z,101887.13
2022-12-01T12:58:50.732Z,101882.19
2022-12-01T13:01:25.172Z,101878.28
2022-12-01T13:04:00.311Z,101879.25
2022-12-01T13:06:42.568Z,101881.94
2022-12-01T13:09:21.675Z,101874.91
2022-12-01T13:12:08.188Z,101882.91
2022-12-01T13:14:59.445Z,101887.72
2022-12-01T13:17:38.329Z,101896.19
2022-12-01T13:20:06.158Z,101886.59
2022-12-01T13:22:40.273Z,101889.78
2022-12-01T13:25:07.745Z,101895.94
2022-12-01T13:27:42.805Z,101889.09
2022-12-01T13:30:27.328Z,101883.91
2022-12-01T13:33:03.235Z,101878.06
2022-12-01T13:35:34.141Z,101886.38
2022-12-01T13:38:35.848Z,101894.13
2022-12-01T13:41:21.648Z,101887.84
2022-12-01T13:44:06.206Z,101891.81
2022-12-01T13:46:42.097Z,101882.31
2022-12-01T13:49:45.782Z,101882.06
2022-12-01T13:52:23.850Z,101887.44
2022-12-01T13:55:09.492Z,101882.19
2022-12-01T13:58:01.129Z,101877.25
2022-12-01T14:00:31.049Z,101879.03
2022-12-01T14:03:13.289Z,101874.84
2022-12-01T14:05:39.932Z,101875.59
2022-12-01T14:08:23.476Z,101873.44
2022-12-01T14:11:04.645Z,101870.06
2022-12-01T14:13:36.295Z,101876.22
2022-12-01T14:16:04.547Z,101873.81
2022-12-01T14:18:40.158Z,101873.72
2022-12-01T14:21:10.643Z,101872.28
2022-12-01T14:23:58.204Z,101867.66
2022-12-01T14:26:28.530Z,101872.47
2022-12-01T14:28:55.076Z,101874.69
2022-12-01T14:31:46.722Z,101877.94
2022-12-01T14:34:24.368Z,101872.63
2022-12-01T14:37:15.731Z,101882.69
2022-12-01T14:39:48.766Z,101881.44
2022-12-01T14:43:06.138Z,101880.13
2022-12-01T14:46:04.781Z,101881.41
2022-12-01T14:48:43.185Z,101883.78
2022-12-01T14:51:46.848Z,101883.44
2022-12-01T14:54:30.744Z,101888.81
2022-12-01T14:57:06.787Z,101881.56
2022-12-01T14:59:35.402Z,101886.06
2022-12-01T15:02:09.478Z,101889.50
2022-12-01T15:05:11.091Z,101892.81
2022-12-01T15:07:46.617Z,101897.53
2022-12-01T15:10:17.974Z,101893.59
2022-12-01T15:12:44.964Z,101895.25
2022-12-01T15:15:26.022Z,101884.72
2022-12-01T15:18:01.721Z,101892.19
2022-12-01T15:20:56.671Z,101890.00
2022-12-01T15:23:23.321Z,101884.63
2022-12-01T15:25:49.946Z,101884.00
2022-12-01T15:28:19.016Z,101885.66
2022-12-01T15:30:50.633Z,101885.28
2022-12-01T15:33:27.635Z,101886.00
2022-12-01T15:35:56.489Z,101894.03
2022-12-01T15:38:28.393Z,101878.13
2022-12-01T15:43:43.182Z,101888.63
2022-12-01T15:46:15.600Z,101883.28
2022-12-01T15:48:43.428Z,101879.84
2022-12-01T15:51:17.472Z,101889.00
2022-12-01T15:54:01.590Z,101888.84
2022-12-01T15:56:30.026Z,101888.72
2022-12-01T15:59:17.368Z,101901.25
2022-12-01T16:01:45.100Z,101900.72
2022-12-01T16:04:30.904Z,101893.75
2022-12-01T16:07:05.558Z,101892.34
2022-12-01T16:09:43.323Z,101891.25
2022-12-01T16:12:15.938Z,101891.22
2022-12-01T16:14:50.149Z,101893.44
2022-12-01T16:17:17.298Z,101893.44
2022-12-01T16:19:45.478Z,101885.94
2022-12-01T16:22:14.692Z,101889.06
2022-12-01T16:24:56.340Z,101899.44
2022-12-01T16:27:47.042Z,101893.84
2022-12-01T16:30:24.454Z,101893.75
2022-12-01T16:32:59.762Z,101887.97
2022-12-01T16:35:32.076Z,101887.25
2022-12-01T16:37:58.982Z,101891.78
2022-12-01T16:40:26.065Z,101901.94
2022-12-01T16:42:52.742Z,101891.16
2022-12-01T16:45:19.935Z,101896.66
2022-12-01T16:47:48.687Z,101897.44
2022-12-01T16:50:23.153Z,101893.66
2022-12-01T16:52:49.870Z,101899.88
2022-12-01T16:55:39.202Z,101888.50
2022-12-01T16:58:05.937Z,101890.53
2022-12-01T17:00:32.797Z,101898.19
2022-12-01T17:02:59.840Z,101881.25
2022-12-01T17:05:26.589Z,101888.50
2022-12-01T17:07:53.532Z,101889.41
2022-12-01T17:10:21.544Z,101892.41
2022-12-01T17:12:49.994Z,101903.13
2022-12-01T17:15:17.002Z,101902.81
2022-12-01T17:17:43.726Z,101913.59
2022-12-01T17:20:12.075Z,101915.56
2022-12-01T17:22:38.777Z,101915.91
2022-12-01T17:25:05.812Z,101923.31
2022-12-01T17:27:32.797Z,101921.69
2022-12-01T17:30:01.986Z,101914.34
2022-12-01T17:32:28.730Z,101919.44
2022-12-01T17:34:55.452Z,101911.94
2022-12-01T17:37:22.084Z,101912.53
2022-12-01T17:39:50.370Z,101916.00
2022-12-01T17:42:17.392Z,101917.88
2022-12-01T17:44:44.031Z,101905.03
2022-12-01T17:47:11.451Z,101913.53
2022-12-01T17:49:38.765Z,101915.47
2022-12-01T17:52:06.735Z,101909.28
2022-12-01T17:54:33.329Z,101911.19
2022-12-01T17:57:00.467Z,101913.31
2022-12-01T17:59:27.128Z,101909.50
2022-12-01T18:01:53.824Z,101908.28
2022-12-01T18:04:20.582Z,101911.75
2022-12-01T18:06:53.567Z,101913.34
2022-12-01T18:09:20.595Z,101913.91
2022-12-01T18:11:47.214Z,101912.09
2022-12-01T18:14:17.652Z,101915.78
2022-12-01T18:16:45.062Z,101913.88
2022-12-01T18:19:12.273Z,101916.69
2022-12-01T18:21:39.881Z,101918.31
2022-12-01T18:24:08.902Z,101922.50
2022-12-01T18:26:36.667Z,101925.63
2022-12-01T18:29:05.648Z,101921.44
2022-12-01T18:31:33.182Z,101910.75
2022-12-01T18:34:04.943Z,101912.09
2022-12-01T18:36:34.065Z,101914.06
2022-12-01T18:39:03.049Z,101915.91
2022-12-01T18:41:29.973Z,101904.75
2022-12-01T18:43:56.647Z,101909.31
2022-12-01T18:46:23.588Z,101903.88
2022-12-01T18:48:52.523Z,101905.09
2022-12-01T18:51:21.045Z,101900.53
2022-12-01T18:53:47.917Z,101899.81
2022-12-01T18:56:15.718Z,101908.59
2022-12-01T18:58:42.899Z,101907.66
2022-12-01T19:01:23.214Z,101910.03
2022-12-01T19:03:50.005Z,101907.06
2022-12-01T19:06:17.610Z,101908.09
2022-12-01T19:08:46.313Z,101903.44
2022-12-01T19:11:13.306Z,101910.59
2022-12-01T19:13:40.077Z,101903.22
2022-12-01T19:16:09.318Z,101908.81
2022-12-01T19:18:37.346Z,101905.31
2022-12-01T19:21:06.320Z,101901.19
2022-12-01T19:23:35.554Z,101898.50
2022-12-01T19:26:07.137Z,101906.41
2022-12-01T19:28:35.202Z,101900.66
2022-12-01T19:31:25.507Z,101904.53
2022-12-01T19:33:54.139Z,101907.84
2022-12-01T19:36:25.676Z,101911.47
2022-12-01T19:38:52.589Z,101912.28
2022-12-01T19:41:20.857Z,101906.81
2022-12-01T19:43:48.540Z,101911.81
2022-12-01T19:46:18.241Z,101905.88
2022-12-01T19:48:45.461Z,101912.34
2022-12-01T19:51:20.426Z,101906.50
2022-12-01T19:53:48.089Z,101904.38
2022-12-01T19:56:14.556Z,101904.00
2022-12-01T19:58:41.260Z,101905.38
2022-12-01T20:01:13.147Z,101906.09
2022-12-01T20:03:44.091Z,101903.31
2022-12-01T20:06:12.712Z,101906.44
2022-12-01T20:08:39.545Z,101900.50
2022-12-01T20:11:07.184Z,101906.69
2022-12-01T20:13:34.885Z,101909.81
2022-12-01T20:16:07.462Z,101900.31
2022-12-01T20:18:34.432Z,101907.25
2022-12-01T20:21:06.164Z,101909.28
2022-12-01T20:23:33.862Z,101913.09
2022-12-01T20:26:01.526Z,101907.19
2022-12-01T20:28:28.484Z,101915.03
2022-12-01T20:30:55.216Z,101912.34
2022-12-01T20:33:21.954Z,101908.81
2022-12-01T20:35:49.228Z,101908.16
2022-12-01T20:38:16.312Z,101912.78
2022-12-01T20:40:42.906Z,101916.50
2022-12-01T20:43:09.634Z,101908.53
2022-12-01T20:45:36.571Z,101913.22
2022-12-01T20:48:03.388Z,101908.38
2022-12-01T20:50:29.966Z,101908.75
2022-12-01T20:52:56.694Z,101901.16
2022-12-01T20:55:24.459Z,101906.97
2022-12-01T20:57:51.436Z,101903.63
2022-12-01T21:00:18.386Z,101896.00
2022-12-01T21:02:46.014Z,101901.38
2022-12-01T21:05:12.650Z,101902.19
2022-12-01T21:07:39.359Z,101899.19
2022-12-01T21:10:06.683Z,101892.81
2022-12-01T21:12:51.935Z,101892.38
2022-12-01T21:15:26.230Z,101896.28
2022-12-01T21:18:03.498Z,101893.63
2022-12-01T21:20:40.687Z,101891.16
2022-12-01T21:23:14.438Z,101891.56
2022-12-01T21:25:42.236Z,101903.91
2022-12-01T21:28:20.945Z,101892.47
2022-12-01T21:30:49.749Z,101893.47
2022-12-01T21:33:19.239Z,101897.84
2022-12-01T21:35:45.982Z,101900.75
2022-12-01T21:38:16.551Z,101894.44
2022-12-01T21:40:47.892Z,101900.38
2022-12-01T21:43:18.863Z,101896.38
2022-12-01T21:45:46.373Z,101883.69
2022-12-01T21:48:16.600Z,101895.66
2022-12-01T21:50:48.129Z,101888.66
2022-12-01T21:53:20.257Z,101883.25
2022-12-01T21:55:47.708Z,101895.59
2022-12-01T21:58:21.641Z,101881.13
2022-12-01T22:00:48.423Z,101887.88
2022-12-01T22:03:27.157Z,101882.63
2022-12-01T22:06:31.369Z,101873.00
2022-12-01T22:09:04.099Z,101871.38
2022-12-01T22:11:31.377Z,101879.56
2022-12-01T22:14:35.481Z,101869.72
2022-12-01T22:17:08.853Z,101876.88
2022-12-01T22:19:39.073Z,101876.69
2022-12-01T22:22:08.718Z,101877.13
2022-12-01T22:24:47.924Z,101867.97
2022-12-01T22:27:30.600Z,101859.34
2022-12-01T22:30:21.956Z,101860.94
2022-12-01T22:33:05.488Z,101866.44
2022-12-01T22:35:45.408Z,101860.91
2022-12-01T22:38:20.620Z,101871.28
2022-12-01T22:41:14.076Z,101860.25
2022-12-01T22:43:41.127Z,101858.72
2022-12-01T22:46:10.785Z,101851.94
2022-12-01T22:48:44.045Z,101853.59
2022-12-01T22:51:13.965Z,101850.34
2022-12-01T22:53:42.250Z,101852.59
2022-12-01T22:56:27.764Z,101855.06
2022-12-01T22:58:54.919Z,101858.72
2022-12-01T23:01:33.600Z,101854.31
2022-12-01T23:04:24.236Z,101857.72
2022-12-01T23:06:52.475Z,101856.34
2022-12-01T23:09:23.855Z,101853.75
2022-12-01T23:12:05.608Z,101847.03
2022-12-01T23:14:34.017Z,101845.44
2022-12-01T23:17:07.060Z,101848.88
2022-12-01T23:19:35.079Z,101850.56
2022-12-01T23:22:02.501Z,101837.00
2022-12-01T23:24:33.698Z,101839.75
2022-12-01T23:27:00.835Z,101838.53
2022-12-01T23:29:27.851Z,101832.31
2022-12-01T23:31:54.972Z,101838.06
2022-12-01T23:34:21.583Z,101828.00
2022-12-01T23:36:50.237Z,101831.44
2022-12-01T23:39:18.378Z,101831.50
2022-12-01T23:41:48.575Z,101827.88
2022-12-01T23:44:37.166Z,101820.56
2022-12-01T23:47:10.146Z,101831.75
2022-12-01T23:49:36.891Z,101824.34
2022-12-01T23:52:04.055Z,101820.22
2022-12-01T23:54:33.861Z,101828.97
2022-12-01T23:57:30.618Z,101825.34
